<?xml version="1.0" encoding="UTF-8" standalone="no" ?><gpx xmlns="http://www.topografix.com/GPX/1/1" xmlns:gpxx="http://www.garmin.com/xmlschemas/GpxExtensions/v3" xmlns:wptx1="http://www.garmin.com/xmlschemas/WaypointExtension/v1" xmlns:gpxtpx="http://www.garmin.com/xmlschemas/TrackPointExtension/v1" creator="GuideVTT.com" version="1.1" xmlns:xsi="http://www.w3.org/2001/XMLSchema-instance" xsi:schemaLocation="http://www.topografix.com/GPX/1/1 http://www.topografix.com/GPX/1/1/gpx.xsd http://www.garmin.com/xmlschemas/GpxExtensions/v3 http://www8.garmin.com/xmlschemas/GpxExtensionsv3.xsd http://www.garmin.com/xmlschemas/WaypointExtension/v1 http://www8.garmin.com/xmlschemas/WaypointExtensionv1.xsd http://www.garmin.com/xmlschemas/TrackPointExtension/v1 http://www.garmin.com/xmlschemas/TrackPointExtensionv1.xsd">
<metadata><link href="http://www.garmin.com"><text>Garmin International</text></link><time>2013-06-22T15:13:50Z</time></metadata>
<trk><name>link-etape3-etape4.gpx</name><extensions><gpxx:TrackExtension><gpxx:DisplayColor>Cyan</gpxx:DisplayColor></gpxx:TrackExtension></extensions><trkseg>
<trkpt lat="46.10145475" lon="7.51395064"><ele>1694.94165</ele><time>2009-06-09T15:25:56Z</time></trkpt>
<trkpt lat="46.10126800" lon="7.51394427"><ele>1692.057861</ele><time>2009-06-09T15:26:03Z</time></trkpt>
<trkpt lat="46.10094002" lon="7.51391066"><ele>1688.693115</ele><time>2009-06-09T15:26:09Z</time></trkpt>
<trkpt lat="46.10041070" lon="7.51391301"><ele>1685.328369</ele><time>2009-06-09T15:26:16Z</time></trkpt>
<trkpt lat="46.09998272" lon="7.51414008"><ele>1682.44458</ele><time>2009-06-09T15:26:21Z</time></trkpt>
<trkpt lat="46.09937972" lon="7.51455766"><ele>1678.599365</ele><time>2009-06-09T15:26:28Z</time></trkpt>
<trkpt lat="46.09919951" lon="7.51467945"><ele>1677.157471</ele><time>2009-06-09T15:26:32Z</time></trkpt>
<trkpt lat="46.09907571" lon="7.51472186"><ele>1676.196045</ele><time>2009-06-09T15:26:35Z</time></trkpt>
<trkpt lat="46.09896834" lon="7.51473268"><ele>1676.196045</ele><time>2009-06-09T15:26:37Z</time></trkpt>
<trkpt lat="46.09873666" lon="7.51484508"><ele>1675.715088</ele><time>2009-06-09T15:26:41Z</time></trkpt>
<trkpt lat="46.09838563" lon="7.51512964"><ele>1674.753906</ele><time>2009-06-09T15:26:46Z</time></trkpt>
<trkpt lat="46.09805631" lon="7.51548529"><ele>1670.908691</ele><time>2009-06-09T15:26:50Z</time></trkpt>
<trkpt lat="46.09795832" lon="7.51554220"><ele>1670.427979</ele><time>2009-06-09T15:26:51Z</time></trkpt>
<trkpt lat="46.09731258" lon="7.51567757"><ele>1666.102051</ele><time>2009-06-09T15:26:57Z</time></trkpt>
<trkpt lat="46.09655234" lon="7.51580045"><ele>1657.450195</ele><time>2009-06-09T15:27:03Z</time></trkpt>
<trkpt lat="46.09608086" lon="7.51595375"><ele>1652.162842</ele><time>2009-06-09T15:27:07Z</time></trkpt>
<trkpt lat="46.09561373" lon="7.51586289"><ele>1652.162842</ele><time>2009-06-09T15:27:11Z</time></trkpt>
<trkpt lat="46.09549773" lon="7.51579818"><ele>1652.162842</ele><time>2009-06-09T15:27:12Z</time></trkpt>
<trkpt lat="46.09478099" lon="7.51527121"><ele>1646.875732</ele><time>2009-06-09T15:27:18Z</time></trkpt>
<trkpt lat="46.09446282" lon="7.51461432"><ele>1638.223877</ele><time>2009-06-09T15:27:22Z</time></trkpt>
<trkpt lat="46.09417817" lon="7.51385635"><ele>1630.533447</ele><time>2009-06-09T15:27:27Z</time></trkpt>
<trkpt lat="46.09409468" lon="7.51364739"><ele>1628.61084</ele><time>2009-06-09T15:27:30Z</time></trkpt>
<trkpt lat="46.09394079" lon="7.51353390"><ele>1623.803955</ele><time>2009-06-09T15:27:34Z</time></trkpt>
<trkpt lat="46.09367877" lon="7.51347036"><ele>1615.152344</ele><time>2009-06-09T15:27:40Z</time></trkpt>
<trkpt lat="46.09364474" lon="7.51347053"><ele>1614.190918</ele><time>2009-06-09T15:27:41Z</time></trkpt>
<trkpt lat="46.09343377" lon="7.51338436"><ele>1607.46167</ele><time>2009-06-09T15:27:45Z</time></trkpt>
<trkpt lat="46.09324501" lon="7.51334723"><ele>1603.135742</ele><time>2009-06-09T15:27:48Z</time></trkpt>
<trkpt lat="46.09304074" lon="7.51344128"><ele>1599.290527</ele><time>2009-06-09T15:27:53Z</time></trkpt>
<trkpt lat="46.09290311" lon="7.51354228"><ele>1595.445068</ele><time>2009-06-09T15:27:58Z</time></trkpt>
<trkpt lat="46.09279733" lon="7.51357941"><ele>1594.483643</ele><time>2009-06-09T15:28:01Z</time></trkpt>
<trkpt lat="46.09257638" lon="7.51359726"><ele>1592.561279</ele><time>2009-06-09T15:28:07Z</time></trkpt>
<trkpt lat="46.09223164" lon="7.51343189"><ele>1593.522461</ele><time>2009-06-09T15:28:16Z</time></trkpt>
<trkpt lat="46.09154491" lon="7.51312888"><ele>1588.716064</ele><time>2009-06-09T15:28:28Z</time></trkpt>
<trkpt lat="46.09085189" lon="7.51293777"><ele>1587.273926</ele><time>2009-06-09T15:28:39Z</time></trkpt>
<trkpt lat="46.09048862" lon="7.51296342"><ele>1582.467529</ele><time>2009-06-09T15:28:45Z</time></trkpt>
<trkpt lat="46.09009886" lon="7.51295286"><ele>1574.776855</ele><time>2009-06-09T15:28:53Z</time></trkpt>
<trkpt lat="46.08963149" lon="7.51286594"><ele>1572.854248</ele><time>2009-06-09T15:29:01Z</time></trkpt>
<trkpt lat="46.08915950" lon="7.51275128"><ele>1571.892822</ele><time>2009-06-09T15:29:09Z</time></trkpt>
<trkpt lat="46.08869531" lon="7.51261750"><ele>1569.489746</ele><time>2009-06-09T15:29:17Z</time></trkpt>
<trkpt lat="46.08830119" lon="7.51251742"><ele>1560.356934</ele><time>2009-06-09T15:29:25Z</time></trkpt>
<trkpt lat="46.08776961" lon="7.51235330"><ele>1556.992432</ele><time>2009-06-09T15:29:34Z</time></trkpt>
<trkpt lat="46.08750919" lon="7.51232866"><ele>1552.185791</ele><time>2009-06-09T15:29:40Z</time></trkpt>
<trkpt lat="46.08712630" lon="7.51227519"><ele>1551.224609</ele><time>2009-06-09T15:29:46Z</time></trkpt>
<trkpt lat="46.08623715" lon="7.51179960"><ele>1550.743896</ele><time>2009-06-09T15:29:58Z</time></trkpt>
<trkpt lat="46.08607396" lon="7.51167823"><ele>1550.263428</ele><time>2009-06-09T15:30:00Z</time></trkpt>
<trkpt lat="46.08585519" lon="7.51151009"><ele>1547.859863</ele><time>2009-06-09T15:30:03Z</time></trkpt>
<trkpt lat="46.08514960" lon="7.51095755"><ele>1544.495117</ele><time>2009-06-09T15:30:12Z</time></trkpt>
<trkpt lat="46.08499202" lon="7.51077843"><ele>1544.495117</ele><time>2009-06-09T15:30:15Z</time></trkpt>
<trkpt lat="46.08447804" lon="7.51050694"><ele>1533.920898</ele><time>2009-06-09T15:30:22Z</time></trkpt>
<trkpt lat="46.08415039" lon="7.51024366"><ele>1521.904297</ele><time>2009-06-09T15:30:28Z</time></trkpt>
<trkpt lat="46.08404520" lon="7.51013956"><ele>1520.462402</ele><time>2009-06-09T15:30:30Z</time></trkpt>
<trkpt lat="46.08387538" lon="7.51001953"><ele>1514.213623</ele><time>2009-06-09T15:30:33Z</time></trkpt>
<trkpt lat="46.08376566" lon="7.50994761"><ele>1513.73291</ele><time>2009-06-09T15:30:35Z</time></trkpt>
<trkpt lat="46.08354773" lon="7.50987503"><ele>1512.771729</ele><time>2009-06-09T15:30:38Z</time></trkpt>
<trkpt lat="46.08316971" lon="7.50970345"><ele>1505.081299</ele><time>2009-06-09T15:30:42Z</time></trkpt>
<trkpt lat="46.08265070" lon="7.50960002"><ele>1501.236084</ele><time>2009-06-09T15:30:47Z</time></trkpt>
<trkpt lat="46.08235298" lon="7.50972432"><ele>1478.164307</ele><time>2009-06-09T15:31:04Z</time></trkpt>
<trkpt lat="46.08239723" lon="7.50963505"><ele>1473.35791</ele><time>2009-06-09T15:31:08Z</time></trkpt>
<trkpt lat="46.08244811" lon="7.50953489"><ele>1471.435059</ele><time>2009-06-09T15:31:11Z</time></trkpt>
<trkpt lat="46.08278406" lon="7.50936675"><ele>1468.070557</ele><time>2009-06-09T15:31:20Z</time></trkpt>
<trkpt lat="46.08326166" lon="7.50935912"><ele>1462.783203</ele><time>2009-06-09T15:31:26Z</time></trkpt>
<trkpt lat="46.08359593" lon="7.50908872"><ele>1461.341309</ele><time>2009-06-09T15:31:31Z</time></trkpt>
<trkpt lat="46.08404394" lon="7.50882586"><ele>1458.457275</ele><time>2009-06-09T15:31:37Z</time></trkpt>
</trkseg></trk></gpx>